sensor_id;sensor_type;location;lat;lon;timestamp;temperature;humidity
5675;DHT22;2860;54.284;10.158;2023-11-19T00:00:50;4.20;99.90
5675;DHT22;2860;54.284;10.158;2023-11-19T00:03:16;4.20;99.90
5675;DHT22;2860;54.284;10.158;2023-11-19T00:05:42;4.20;99.90
5675;DHT22;2860;54.284;10.158;2023-11-19T00:08:07;4.30;99.90
5675;DHT22;2860;54.284;10.158;2023-11-19T00:10:34;4.20;99.90
5675;DHT22;2860;54.284;10.158;2023-11-19T00:12:59;4.30;99.90
5675;DHT22;2860;54.284;10.158;2023-11-19T00:15:25;4.30;99.90
5675;DHT22;2860;54.284;10.158;2023-11-19T00:17:50;4.30;99.90
5675;DHT22;2860;54.284;10.158;2023-11-19T00:20:19;4.30;99.90
5675;DHT22;2860;54.284;10.158;2023-11-19T00:22:47;4.30;99.90
5675;DHT22;2860;54.284;10.158;2023-11-19T00:25:16;4.30;99.90
5675;DHT22;2860;54.284;10.158;2023-11-19T00:27:42;4.30;99.90
5675;DHT22;2860;54.284;10.158;2023-11-19T00:30:10;4.30;99.90
5675;DHT22;2860;54.284;10.158;2023-11-19T00:32:36;4.30;99.90
5675;DHT22;2860;54.284;10.158;2023-11-19T00:35:04;4.30;99.90
5675;DHT22;2860;54.284;10.158;2023-11-19T00:37:29;4.30;99.90
5675;DHT22;2860;54.284;10.158;2023-11-19T00:39:55;4.30;99.90
5675;DHT22;2860;54.284;10.158;2023-11-19T00:42:22;4.30;99.90
5675;DHT22;2860;54.284;10.158;2023-11-19T00:44:47;4.30;99.90
5675;DHT22;2860;54.284;10.158;2023-11-19T00:47:13;4.30;99.90
5675;DHT22;2860;54.284;10.158;2023-11-19T00:49:38;4.30;99.90
5675;DHT22;2860;54.284;10.158;2023-11-19T00:52:04;4.30;99.90
5675;DHT22;2860;54.284;10.158;2023-11-19T00:54:30;4.40;99.90
5675;DHT22;2860;54.284;10.158;2023-11-19T00:56:55;4.30;99.90
5675;DHT22;2860;54.284;10.158;2023-11-19T00:59:21;4.30;99.90
5675;DHT22;2860;54.284;10.158;2023-11-19T01:01:46;4.40;99.90
5675;DHT22;2860;54.284;10.158;2023-11-19T01:04:16;4.40;99.90
5675;DHT22;2860;54.284;10.158;2023-11-19T01:06:42;4.40;99.90
5675;DHT22;2860;54.284;10.158;2023-11-19T01:09:08;4.40;99.90
5675;DHT22;2860;54.284;10.158;2023-11-19T01:11:34;4.30;99.90
5675;DHT22;2860;54.284;10.158;2023-11-19T01:14:00;4.40;99.90
5675;DHT22;2860;54.284;10.158;2023-11-19T01:16:26;4.40;99.90
5675;DHT22;2860;54.284;10.158;2023-11-19T01:18:52;4.40;99.90
5675;DHT22;2860;54.284;10.158;2023-11-19T01:21:18;4.40;99.90
5675;DHT22;2860;54.284;10.158;2023-11-19T01:23:43;4.40;99.90
5675;DHT22;2860;54.284;10.158;2023-11-19T01:26:10;4.40;99.90
5675;DHT22;2860;54.284;10.158;2023-11-19T01:28:36;4.40;99.90
5675;DHT22;2860;54.284;10.158;2023-11-19T01:31:01;4.40;99.90
5675;DHT22;2860;54.284;10.158;2023-11-19T01:33:28;4.50;99.90
5675;DHT22;2860;54.284;10.158;2023-11-19T01:35:54;4.40;99.90
5675;DHT22;2860;54.284;10.158;2023-11-19T01:38:19;4.40;99.90
5675;DHT22;2860;54.284;10.158;2023-11-19T01:40:45;4.40;99.90
5675;DHT22;2860;54.284;10.158;2023-11-19T01:43:10;4.50;99.90
5675;DHT22;2860;54.284;10.158;2023-11-19T01:45:37;4.50;99.90
5675;DHT22;2860;54.284;10.158;2023-11-19T01:48:04;4.40;99.90
5675;DHT22;2860;54.284;10.158;2023-11-19T01:50:30;4.40;99.90
5675;DHT22;2860;54.284;10.158;2023-11-19T01:52:57;4.40;99.90
5675;DHT22;2860;54.284;10.158;2023-11-19T01:55:26;4.50;99.90
5675;DHT22;2860;54.284;10.158;2023-11-19T01:57:55;4.50;99.90
5675;DHT22;2860;54.284;10.158;2023-11-19T02:00:23;4.50;99.90
5675;DHT22;2860;54.284;10.158;2023-11-19T02:02:49;4.50;99.90
5675;DHT22;2860;54.284;10.158;2023-11-19T02:05:16;4.50;99.90
5675;DHT22;2860;54.284;10.158;2023-11-19T02:07:42;4.50;99.90
5675;DHT22;2860;54.284;10.158;2023-11-19T02:10:07;4.50;99.90
5675;DHT22;2860;54.284;10.158;2023-11-19T02:12:38;4.50;99.90
5675;DHT22;2860;54.284;10.158;2023-11-19T02:15:04;4.50;99.90
5675;DHT22;2860;54.284;10.158;2023-11-19T02:17:30;4.50;99.90
5675;DHT22;2860;54.284;10.158;2023-11-19T02:20:05;4.50;99.90
5675;DHT22;2860;54.284;10.158;2023-11-19T02:22:36;4.50;99.90
5675;DHT22;2860;54.284;10.158;2023-11-19T02:25:06;4.50;99.90
5675;DHT22;2860;54.284;10.158;2023-11-19T02:28:18;4.50;99.90
5675;DHT22;2860;54.284;10.158;2023-11-19T02:30:37;4.50;99.90
5675;DHT22;2860;54.284;10.158;2023-11-19T02:33:03;4.50;99.90
5675;DHT22;2860;54.284;10.158;2023-11-19T02:35:31;4.40;99.90
5675;DHT22;2860;54.284;10.158;2023-11-19T02:37:57;4.50;99.90
5675;DHT22;2860;54.284;10.158;2023-11-19T02:40:24;4.40;99.90
5675;DHT22;2860;54.284;10.158;2023-11-19T02:42:50;4.50;99.90
5675;DHT22;2860;54.284;10.158;2023-11-19T02:45:16;4.50;99.90
5675;DHT22;2860;54.284;10.158;2023-11-19T02:47:42;4.50;99.90
5675;DHT22;2860;54.284;10.158;2023-11-19T02:50:08;4.50;99.90
5675;DHT22;2860;54.284;10.158;2023-11-19T02:52:40;4.50;99.90
5675;DHT22;2860;54.284;10.158;2023-11-19T02:55:06;4.50;99.90
5675;DHT22;2860;54.284;10.158;2023-11-19T02:57:35;4.50;99.90
5675;DHT22;2860;54.284;10.158;2023-11-19T03:00:00;4.50;99.90
5675;DHT22;2860;54.284;10.158;2023-11-19T03:02:26;4.50;99.90
5675;DHT22;2860;54.284;10.158;2023-11-19T03:04:59;4.50;99.90
5675;DHT22;2860;54.284;10.158;2023-11-19T03:07:25;4.50;99.90
5675;DHT22;2860;54.284;10.158;2023-11-19T03:09:50;4.50;99.90
5675;DHT22;2860;54.284;10.158;2023-11-19T03:12:16;4.60;99.90
5675;DHT22;2860;54.284;10.158;2023-11-19T03:14:41;4.50;99.90
5675;DHT22;2860;54.284;10.158;2023-11-19T03:17:07;4.60;99.90
5675;DHT22;2860;54.284;10.158;2023-11-19T03:19:35;4.60;99.90
5675;DHT22;2860;54.284;10.158;2023-11-19T03:22:01;4.50;99.90
5675;DHT22;2860;54.284;10.158;2023-11-19T03:24:27;4.60;99.90
5675;DHT22;2860;54.284;10.158;2023-11-19T03:26:53;4.60;99.90
5675;DHT22;2860;54.284;10.158;2023-11-19T03:29:18;4.60;99.90
5675;DHT22;2860;54.284;10.158;2023-11-19T03:31:44;4.60;99.90
5675;DHT22;2860;54.284;10.158;2023-11-19T03:34:12;4.60;99.90
5675;DHT22;2860;54.284;10.158;2023-11-19T03:36:38;4.60;99.90
5675;DHT22;2860;54.284;10.158;2023-11-19T03:39:03;4.60;99.90
5675;DHT22;2860;54.284;10.158;2023-11-19T03:41:29;4.60;99.90
5675;DHT22;2860;54.284;10.158;2023-11-19T03:43:54;4.60;99.90
5675;DHT22;2860;54.284;10.158;2023-11-19T03:46:21;4.60;99.90
5675;DHT22;2860;54.284;10.158;2023-11-19T03:48:48;4.70;99.90
5675;DHT22;2860;54.284;10.158;2023-11-19T03:51:13;4.70;99.90
5675;DHT22;2860;54.284;10.158;2023-11-19T03:53:43;4.70;99.90
5675;DHT22;2860;54.284;10.158;2023-11-19T03:56:09;4.70;99.90
5675;DHT22;2860;54.284;10.158;2023-11-19T03:58:35;4.70;99.90
5675;DHT22;2860;54.284;10.158;2023-11-19T04:01:01;4.70;99.90
5675;DHT22;2860;54.284;10.158;2023-11-19T04:03:27;4.70;99.90
5675;DHT22;2860;54.284;10.158;2023-11-19T04:05:53;4.70;99.90
5675;DHT22;2860;54.284;10.158;2023-11-19T04:08:18;4.70;99.90
5675;DHT22;2860;54.284;10.158;2023-11-19T04:10:44;4.70;99.90
5675;DHT22;2860;54.284;10.158;2023-11-19T04:13:10;4.70;99.90
5675;DHT22;2860;54.284;10.158;2023-11-19T04:15:36;4.70;99.90
5675;DHT22;2860;54.284;10.158;2023-11-19T04:18:01;4.70;99.90
5675;DHT22;2860;54.284;10.158;2023-11-19T04:20:27;4.70;99.90
5675;DHT22;2860;54.284;10.158;2023-11-19T04:22:52;4.70;99.90
5675;DHT22;2860;54.284;10.158;2023-11-19T04:25:19;4.70;99.90
5675;DHT22;2860;54.284;10.158;2023-11-19T04:27:44;4.80;99.90
5675;DHT22;2860;54.284;10.158;2023-11-19T04:30:10;4.80;99.90
5675;DHT22;2860;54.284;10.158;2023-11-19T04:32:36;4.80;99.90
5675;DHT22;2860;54.284;10.158;2023-11-19T04:35:02;4.80;99.90
5675;DHT22;2860;54.284;10.158;2023-11-19T04:37:28;4.80;99.90
5675;DHT22;2860;54.284;10.158;2023-11-19T04:39:54;4.80;99.90
5675;DHT22;2860;54.284;10.158;2023-11-19T04:42:22;4.80;99.90
5675;DHT22;2860;54.284;10.158;2023-11-19T04:44:47;4.80;99.90
5675;DHT22;2860;54.284;10.158;2023-11-19T04:47:13;4.80;99.90
5675;DHT22;2860;54.284;10.158;2023-11-19T04:49:42;4.80;99.90
5675;DHT22;2860;54.284;10.158;2023-11-19T04:52:10;4.80;99.90
5675;DHT22;2860;54.284;10.158;2023-11-19T04:54:41;4.90;99.90
5675;DHT22;2860;54.284;10.158;2023-11-19T04:57:07;4.90;99.90
5675;DHT22;2860;54.284;10.158;2023-11-19T04:59:35;4.90;99.90
5675;DHT22;2860;54.284;10.158;2023-11-19T05:02:00;4.90;99.90
5675;DHT22;2860;54.284;10.158;2023-11-19T05:04:26;4.90;99.90
5675;DHT22;2860;54.284;10.158;2023-11-19T05:06:51;4.90;99.90
5675;DHT22;2860;54.284;10.158;2023-11-19T05:09:17;4.90;99.90
5675;DHT22;2860;54.284;10.158;2023-11-19T05:11:43;4.90;99.90
5675;DHT22;2860;54.284;10.158;2023-11-19T05:14:09;4.90;99.90
5675;DHT22;2860;54.284;10.158;2023-11-19T05:16:34;4.90;99.90
5675;DHT22;2860;54.284;10.158;2023-11-19T05:19:00;4.90;99.90
5675;DHT22;2860;54.284;10.158;2023-11-19T05:21:26;5.00;99.90
5675;DHT22;2860;54.284;10.158;2023-11-19T05:23:51;5.00;99.90
5675;DHT22;2860;54.284;10.158;2023-11-19T05:26:18;5.00;99.90
5675;DHT22;2860;54.284;10.158;2023-11-19T05:28:44;5.00;99.90
5675;DHT22;2860;54.284;10.158;2023-11-19T05:31:09;5.10;99.90
5675;DHT22;2860;54.284;10.158;2023-11-19T05:33:35;5.20;99.90
5675;DHT22;2860;54.284;10.158;2023-11-19T05:36:00;5.20;99.90
5675;DHT22;2860;54.284;10.158;2023-11-19T05:38:28;5.20;99.90
5675;DHT22;2860;54.284;10.158;2023-11-19T05:40:54;5.20;99.90
5675;DHT22;2860;54.284;10.158;2023-11-19T05:43:19;5.20;99.90
5675;DHT22;2860;54.284;10.158;2023-11-19T05:45:45;5.10;99.90
5675;DHT22;2860;54.284;10.158;2023-11-19T05:48:10;5.20;99.90
5675;DHT22;2860;54.284;10.158;2023-11-19T05:50:36;5.20;99.90
5675;DHT22;2860;54.284;10.158;2023-11-19T05:53:02;5.20;99.90
5675;DHT22;2860;54.284;10.158;2023-11-19T05:55:30;5.20;99.90
5675;DHT22;2860;54.284;10.158;2023-11-19T05:57:56;5.20;99.90
5675;DHT22;2860;54.284;10.158;2023-11-19T06:00:22;5.20;99.90
5675;DHT22;2860;54.284;10.158;2023-11-19T06:02:47;5.30;99.90
5675;DHT22;2860;54.284;10.158;2023-11-19T06:05:12;5.30;99.90
5675;DHT22;2860;54.284;10.158;2023-11-19T06:07:38;5.30;99.90
5675;DHT22;2860;54.284;10.158;2023-11-19T06:10:04;5.30;99.90
5675;DHT22;2860;54.284;10.158;2023-11-19T06:12:33;5.30;99.90
5675;DHT22;2860;54.284;10.158;2023-11-19T06:15:04;5.30;99.90
5675;DHT22;2860;54.284;10.158;2023-11-19T06:17:29;5.30;99.90
5675;DHT22;2860;54.284;10.158;2023-11-19T06:19:55;5.40;99.90
5675;DHT22;2860;54.284;10.158;2023-11-19T06:22:20;5.40;99.90
5675;DHT22;2860;54.284;10.158;2023-11-19T06:24:46;5.40;99.90
5675;DHT22;2860;54.284;10.158;2023-11-19T06:27:11;5.40;99.90
5675;DHT22;2860;54.284;10.158;2023-11-19T06:29:38;5.50;99.90
5675;DHT22;2860;54.284;10.158;2023-11-19T06:32:06;5.50;99.90
5675;DHT22;2860;54.284;10.158;2023-11-19T06:34:33;5.50;99.90
5675;DHT22;2860;54.284;10.158;2023-11-19T06:36:59;5.50;99.90
5675;DHT22;2860;54.284;10.158;2023-11-19T06:39:24;5.60;99.90
5675;DHT22;2860;54.284;10.158;2023-11-19T06:41:51;5.60;99.90
5675;DHT22;2860;54.284;10.158;2023-11-19T06:44:17;5.60;99.90
5675;DHT22;2860;54.284;10.158;2023-11-19T06:46:43;5.60;99.90
5675;DHT22;2860;54.284;10.158;2023-11-19T06:49:08;5.70;99.90
5675;DHT22;2860;54.284;10.158;2023-11-19T06:51:34;5.70;99.90
5675;DHT22;2860;54.284;10.158;2023-11-19T06:54:00;5.70;99.90
5675;DHT22;2860;54.284;10.158;2023-11-19T06:56:26;5.70;99.90
5675;DHT22;2860;54.284;10.158;2023-11-19T06:58:52;5.80;99.90
5675;DHT22;2860;54.284;10.158;2023-11-19T07:01:18;5.80;99.90
5675;DHT22;2860;54.284;10.158;2023-11-19T07:03:45;5.90;99.90
5675;DHT22;2860;54.284;10.158;2023-11-19T07:06:11;5.90;99.90
5675;DHT22;2860;54.284;10.158;2023-11-19T07:08:38;5.90;99.90
5675;DHT22;2860;54.284;10.158;2023-11-19T07:11:04;6.00;99.90
5675;DHT22;2860;54.284;10.158;2023-11-19T07:13:30;6.00;99.90
5675;DHT22;2860;54.284;10.158;2023-11-19T07:15:58;6.10;99.90
5675;DHT22;2860;54.284;10.158;2023-11-19T07:18:24;6.10;99.90
5675;DHT22;2860;54.284;10.158;2023-11-19T07:20:50;6.20;99.90
5675;DHT22;2860;54.284;10.158;2023-11-19T07:23:15;6.20;99.90
5675;DHT22;2860;54.284;10.158;2023-11-19T07:25:44;6.20;99.90
5675;DHT22;2860;54.284;10.158;2023-11-19T07:28:15;6.30;99.90
5675;DHT22;2860;54.284;10.158;2023-11-19T07:30:40;6.30;99.90
5675;DHT22;2860;54.284;10.158;2023-11-19T07:33:06;6.40;99.90
5675;DHT22;2860;54.284;10.158;2023-11-19T07:35:32;6.40;99.90
5675;DHT22;2860;54.284;10.158;2023-11-19T07:37:58;6.50;99.90
5675;DHT22;2860;54.284;10.158;2023-11-19T07:40:26;6.50;99.90
5675;DHT22;2860;54.284;10.158;2023-11-19T07:42:51;6.60;99.90
5675;DHT22;2860;54.284;10.158;2023-11-19T07:45:17;6.60;99.90
5675;DHT22;2860;54.284;10.158;2023-11-19T07:47:43;6.70;99.90
5675;DHT22;2860;54.284;10.158;2023-11-19T07:50:10;6.70;99.90
5675;DHT22;2860;54.284;10.158;2023-11-19T07:52:37;6.80;99.90
5675;DHT22;2860;54.284;10.158;2023-11-19T07:55:02;6.80;99.90
5675;DHT22;2860;54.284;10.158;2023-11-19T07:57:28;6.90;99.90
5675;DHT22;2860;54.284;10.158;2023-11-19T07:59:56;7.00;99.90
5675;DHT22;2860;54.284;10.158;2023-11-19T08:02:22;7.00;99.90
5675;DHT22;2860;54.284;10.158;2023-11-19T08:04:49;7.10;99.90
5675;DHT22;2860;54.284;10.158;2023-11-19T08:07:19;7.10;99.90
5675;DHT22;2860;54.284;10.158;2023-11-19T08:09:45;7.20;99.90
5675;DHT22;2860;54.284;10.158;2023-11-19T08:12:10;7.30;99.90
5675;DHT22;2860;54.284;10.158;2023-11-19T08:14:36;7.30;99.90
5675;DHT22;2860;54.284;10.158;2023-11-19T08:17:02;7.40;99.90
5675;DHT22;2860;54.284;10.158;2023-11-19T08:19:28;7.50;99.90
5675;DHT22;2860;54.284;10.158;2023-11-19T08:21:53;7.70;99.90
5675;DHT22;2860;54.284;10.158;2023-11-19T08:24:19;7.90;99.90
5675;DHT22;2860;54.284;10.158;2023-11-19T08:26:44;8.20;99.90
5675;DHT22;2860;54.284;10.158;2023-11-19T08:29:10;8.50;99.90
5675;DHT22;2860;54.284;10.158;2023-11-19T08:31:35;8.60;99.90
5675;DHT22;2860;54.284;10.158;2023-11-19T08:34:01;8.90;99.90
5675;DHT22;2860;54.284;10.158;2023-11-19T08:36:27;9.10;99.90
5675;DHT22;2860;54.284;10.158;2023-11-19T08:38:53;9.30;99.90
5675;DHT22;2860;54.284;10.158;2023-11-19T08:41:19;9.30;99.90
5675;DHT22;2860;54.284;10.158;2023-11-19T08:43:45;9.40;99.90
5675;DHT22;2860;54.284;10.158;2023-11-19T08:46:11;9.50;99.90
5675;DHT22;2860;54.284;10.158;2023-11-19T08:48:36;9.60;99.90
5675;DHT22;2860;54.284;10.158;2023-11-19T08:51:02;9.70;99.90
5675;DHT22;2860;54.284;10.158;2023-11-19T08:53:28;9.70;99.90
5675;DHT22;2860;54.284;10.158;2023-11-19T08:55:53;9.70;99.90
5675;DHT22;2860;54.284;10.158;2023-11-19T08:58:19;9.70;99.90
5675;DHT22;2860;54.284;10.158;2023-11-19T09:00:44;9.80;99.90
5675;DHT22;2860;54.284;10.158;2023-11-19T09:03:10;9.80;99.90
5675;DHT22;2860;54.284;10.158;2023-11-19T09:05:35;9.80;99.90
5675;DHT22;2860;54.284;10.158;2023-11-19T09:08:02;9.80;99.90
5675;DHT22;2860;54.284;10.158;2023-11-19T09:10:27;9.90;99.90
5675;DHT22;2860;54.284;10.158;2023-11-19T09:12:54;9.90;99.90
5675;DHT22;2860;54.284;10.158;2023-11-19T09:15:20;10.00;99.90
5675;DHT22;2860;54.284;10.158;2023-11-19T09:17:45;10.00;99.90
5675;DHT22;2860;54.284;10.158;2023-11-19T09:20:11;10.00;99.90
5675;DHT22;2860;54.284;10.158;2023-11-19T09:22:40;10.00;99.90
5675;DHT22;2860;54.284;10.158;2023-11-19T09:25:06;10.10;99.90
5675;DHT22;2860;54.284;10.158;2023-11-19T09:27:31;10.10;99.90
5675;DHT22;2860;54.284;10.158;2023-11-19T09:29:57;10.10;99.90
5675;DHT22;2860;54.284;10.158;2023-11-19T09:32:24;10.10;99.90
5675;DHT22;2860;54.284;10.158;2023-11-19T09:34:50;10.20;99.90
5675;DHT22;2860;54.284;10.158;2023-11-19T09:37:15;10.20;99.90
5675;DHT22;2860;54.284;10.158;2023-11-19T09:39:41;10.20;99.90
5675;DHT22;2860;54.284;10.158;2023-11-19T09:42:09;10.20;99.90
5675;DHT22;2860;54.284;10.158;2023-11-19T09:44:36;10.20;99.90
5675;DHT22;2860;54.284;10.158;2023-11-19T09:47:03;10.30;99.90
5675;DHT22;2860;54.284;10.158;2023-11-19T09:49:29;10.40;99.90
5675;DHT22;2860;54.284;10.158;2023-11-19T09:51:55;10.40;99.90
5675;DHT22;2860;54.284;10.158;2023-11-19T09:54:21;10.50;99.90
5675;DHT22;2860;54.284;10.158;2023-11-19T09:56:47;10.50;99.90
5675;DHT22;2860;54.284;10.158;2023-11-19T09:59:22;10.50;99.90
5675;DHT22;2860;54.284;10.158;2023-11-19T10:01:57;10.50;99.90
5675;DHT22;2860;54.284;10.158;2023-11-19T10:04:23;10.40;99.90
5675;DHT22;2860;54.284;10.158;2023-11-19T10:06:50;10.40;99.90
5675;DHT22;2860;54.284;10.158;2023-11-19T10:09:17;10.40;99.90
5675;DHT22;2860;54.284;10.158;2023-11-19T10:11:42;10.30;99.90
5675;DHT22;2860;54.284;10.158;2023-11-19T10:14:09;10.30;99.90
5675;DHT22;2860;54.284;10.158;2023-11-19T10:16:34;10.30;99.90
5675;DHT22;2860;54.284;10.158;2023-11-19T10:19:00;10.30;99.90
5675;DHT22;2860;54.284;10.158;2023-11-19T10:21:26;10.30;99.90
5675;DHT22;2860;54.284;10.158;2023-11-19T10:23:55;10.30;99.90
5675;DHT22;2860;54.284;10.158;2023-11-19T10:26:22;10.30;99.90
5675;DHT22;2860;54.284;10.158;2023-11-19T10:28:48;10.30;99.90
5675;DHT22;2860;54.284;10.158;2023-11-19T10:31:18;10.30;99.90
5675;DHT22;2860;54.284;10.158;2023-11-19T10:33:45;10.30;99.90
5675;DHT22;2860;54.284;10.158;2023-11-19T10:36:14;10.30;99.90
5675;DHT22;2860;54.284;10.158;2023-11-19T10:38:40;10.30;99.90
5675;DHT22;2860;54.284;10.158;2023-11-19T10:41:06;10.30;99.90
5675;DHT22;2860;54.284;10.158;2023-11-19T10:43:43;10.30;99.90
5675;DHT22;2860;54.284;10.158;2023-11-19T10:46:13;10.30;99.90
5675;DHT22;2860;54.284;10.158;2023-11-19T10:48:39;10.30;99.90
5675;DHT22;2860;54.284;10.158;2023-11-19T10:51:07;10.30;99.90
5675;DHT22;2860;54.284;10.158;2023-11-19T10:53:36;10.40;99.90
5675;DHT22;2860;54.284;10.158;2023-11-19T10:56:05;10.40;99.90
5675;DHT22;2860;54.284;10.158;2023-11-19T10:58:33;10.40;99.90
5675;DHT22;2860;54.284;10.158;2023-11-19T11:01:02;10.40;99.90
5675;DHT22;2860;54.284;10.158;2023-11-19T11:03:36;10.60;99.90
5675;DHT22;2860;54.284;10.158;2023-11-19T11:06:05;10.60;99.90
5675;DHT22;2860;54.284;10.158;2023-11-19T11:08:31;10.60;99.90
5675;DHT22;2860;54.284;10.158;2023-11-19T11:10:56;10.60;99.90
5675;DHT22;2860;54.284;10.158;2023-11-19T11:13:26;10.60;99.90
5675;DHT22;2860;54.284;10.158;2023-11-19T11:15:56;10.60;99.90
5675;DHT22;2860;54.284;10.158;2023-11-19T11:18:25;10.70;99.90
5675;DHT22;2860;54.284;10.158;2023-11-19T11:21:04;10.70;99.90
5675;DHT22;2860;54.284;10.158;2023-11-19T11:23:52;10.70;99.90
5675;DHT22;2860;54.284;10.158;2023-11-19T11:37:33;10.80;99.90
5675;DHT22;2860;54.284;10.158;2023-11-19T11:40:01;10.90;99.90
5675;DHT22;2860;54.284;10.158;2023-11-19T11:42:34;10.90;99.90
5675;DHT22;2860;54.284;10.158;2023-11-19T11:45:04;10.80;99.90
5675;DHT22;2860;54.284;10.158;2023-11-19T11:48:09;10.80;99.90
5675;DHT22;2860;54.284;10.158;2023-11-19T11:50:46;10.90;99.90
5675;DHT22;2860;54.284;10.158;2023-11-19T11:53:13;10.90;99.90
5675;DHT22;2860;54.284;10.158;2023-11-19T11:58:15;10.80;99.90
5675;DHT22;2860;54.284;10.158;2023-11-19T12:00:42;10.80;99.90
5675;DHT22;2860;54.284;10.158;2023-11-19T12:03:08;10.80;99.90
5675;DHT22;2860;54.284;10.158;2023-11-19T12:05:42;11.00;99.90
5675;DHT22;2860;54.284;10.158;2023-11-19T12:08:12;11.00;99.90
5675;DHT22;2860;54.284;10.158;2023-11-19T12:10:54;11.00;99.90
5675;DHT22;2860;54.284;10.158;2023-11-19T12:16:39;10.90;99.90
5675;DHT22;2860;54.284;10.158;2023-11-19T12:19:05;10.80;99.90
5675;DHT22;2860;54.284;10.158;2023-11-19T12:21:31;10.80;99.90
5675;DHT22;2860;54.284;10.158;2023-11-19T12:23:58;10.80;99.90
5675;DHT22;2860;54.284;10.158;2023-11-19T12:26:33;10.80;99.90
5675;DHT22;2860;54.284;10.158;2023-11-19T12:29:00;10.80;99.90
5675;DHT22;2860;54.284;10.158;2023-11-19T12:31:26;10.70;99.90
5675;DHT22;2860;54.284;10.158;2023-11-19T12:33:51;10.70;99.90
5675;DHT22;2860;54.284;10.158;2023-11-19T12:36:18;10.70;99.90
5675;DHT22;2860;54.284;10.158;2023-11-19T12:38:45;10.70;99.90
5675;DHT22;2860;54.284;10.158;2023-11-19T12:41:11;10.70;99.90
5675;DHT22;2860;54.284;10.158;2023-11-19T12:43:38;10.60;99.90
5675;DHT22;2860;54.284;10.158;2023-11-19T12:46:24;10.60;99.90
5675;DHT22;2860;54.284;10.158;2023-11-19T12:48:51;10.70;99.90
5675;DHT22;2860;54.284;10.158;2023-11-19T12:51:17;10.70;99.90
5675;DHT22;2860;54.284;10.158;2023-11-19T12:53:50;10.70;99.90
5675;DHT22;2860;54.284;10.158;2023-11-19T12:56:16;10.70;99.90
5675;DHT22;2860;54.284;10.158;2023-11-19T12:58:53;10.60;99.90
5675;DHT22;2860;54.284;10.158;2023-11-19T13:01:20;10.60;99.90
5675;DHT22;2860;54.284;10.158;2023-11-19T13:03:46;10.50;99.90
5675;DHT22;2860;54.284;10.158;2023-11-19T13:06:15;10.50;99.90
5675;DHT22;2860;54.284;10.158;2023-11-19T13:08:44;10.50;99.90
5675;DHT22;2860;54.284;10.158;2023-11-19T13:11:13;10.50;99.90
5675;DHT22;2860;54.284;10.158;2023-11-19T13:14:01;10.50;99.90
5675;DHT22;2860;54.284;10.158;2023-11-19T13:16:29;10.50;99.90
5675;DHT22;2860;54.284;10.158;2023-11-19T13:18:55;10.40;99.90
5675;DHT22;2860;54.284;10.158;2023-11-19T13:21:21;10.40;99.90
5675;DHT22;2860;54.284;10.158;2023-11-19T13:23:46;10.40;99.90
5675;DHT22;2860;54.284;10.158;2023-11-19T13:26:12;10.40;99.90
5675;DHT22;2860;54.284;10.158;2023-11-19T13:28:38;10.40;99.90
5675;DHT22;2860;54.284;10.158;2023-11-19T13:31:04;10.60;99.90
5675;DHT22;2860;54.284;10.158;2023-11-19T13:33:30;10.60;99.90
5675;DHT22;2860;54.284;10.158;2023-11-19T13:35:56;10.60;99.90
5675;DHT22;2860;54.284;10.158;2023-11-19T13:38:22;10.60;99.90
5675;DHT22;2860;54.284;10.158;2023-11-19T13:40:49;10.60;99.90
5675;DHT22;2860;54.284;10.158;2023-11-19T13:43:15;10.70;99.90
5675;DHT22;2860;54.284;10.158;2023-11-19T13:45:40;10.60;99.90
5675;DHT22;2860;54.284;10.158;2023-11-19T13:48:06;10.60;99.90
5675;DHT22;2860;54.284;10.158;2023-11-19T13:50:31;10.60;99.90
5675;DHT22;2860;54.284;10.158;2023-11-19T13:52:57;10.60;99.90
5675;DHT22;2860;54.284;10.158;2023-11-19T13:55:23;10.60;99.90
5675;DHT22;2860;54.284;10.158;2023-11-19T13:57:48;10.60;99.90
5675;DHT22;2860;54.284;10.158;2023-11-19T14:00:14;10.50;99.90
5675;DHT22;2860;54.284;10.158;2023-11-19T14:02:45;10.60;99.90
5675;DHT22;2860;54.284;10.158;2023-11-19T14:05:12;10.60;99.90
5675;DHT22;2860;54.284;10.158;2023-11-19T14:07:38;10.60;99.90
5675;DHT22;2860;54.284;10.158;2023-11-19T14:10:04;10.50;99.90
5675;DHT22;2860;54.284;10.158;2023-11-19T14:12:31;10.50;99.90
5675;DHT22;2860;54.284;10.158;2023-11-19T14:14:57;10.40;99.90
5675;DHT22;2860;54.284;10.158;2023-11-19T14:17:23;10.40;99.90
5675;DHT22;2860;54.284;10.158;2023-11-19T14:19:50;10.40;99.90
5675;DHT22;2860;54.284;10.158;2023-11-19T14:22:16;10.40;99.90
5675;DHT22;2860;54.284;10.158;2023-11-19T14:24:41;10.40;99.90
5675;DHT22;2860;54.284;10.158;2023-11-19T14:27:11;10.40;99.90
5675;DHT22;2860;54.284;10.158;2023-11-19T14:29:36;10.40;99.90
5675;DHT22;2860;54.284;10.158;2023-11-19T14:32:03;10.40;99.90
5675;DHT22;2860;54.284;10.158;2023-11-19T14:34:32;10.30;99.90
5675;DHT22;2860;54.284;10.158;2023-11-19T14:36:58;10.30;99.90
5675;DHT22;2860;54.284;10.158;2023-11-19T14:39:25;10.20;99.90
5675;DHT22;2860;54.284;10.158;2023-11-19T14:41:51;10.20;99.90
5675;DHT22;2860;54.284;10.158;2023-11-19T14:44:17;10.20;99.90
5675;DHT22;2860;54.284;10.158;2023-11-19T14:46:45;10.20;99.90
5675;DHT22;2860;54.284;10.158;2023-11-19T14:49:11;10.20;99.90
5675;DHT22;2860;54.284;10.158;2023-11-19T14:51:40;10.20;99.90
5675;DHT22;2860;54.284;10.158;2023-11-19T14:54:05;10.20;99.90
5675;DHT22;2860;54.284;10.158;2023-11-19T14:56:31;10.20;99.90
5675;DHT22;2860;54.284;10.158;2023-11-19T14:58:57;10.10;99.90
5675;DHT22;2860;54.284;10.158;2023-11-19T15:01:24;10.10;99.90
5675;DHT22;2860;54.284;10.158;2023-11-19T15:03:49;10.10;99.90
5675;DHT22;2860;54.284;10.158;2023-11-19T15:06:15;10.10;99.90
5675;DHT22;2860;54.284;10.158;2023-11-19T15:08:41;10.00;99.90
5675;DHT22;2860;54.284;10.158;2023-11-19T15:11:07;10.00;99.90
5675;DHT22;2860;54.284;10.158;2023-11-19T15:13:35;10.00;99.90
5675;DHT22;2860;54.284;10.158;2023-11-19T15:16:02;9.90;99.90
5675;DHT22;2860;54.284;10.158;2023-11-19T15:18:31;9.90;99.90
5675;DHT22;2860;54.284;10.158;2023-11-19T15:20:56;9.90;99.90
5675;DHT22;2860;54.284;10.158;2023-11-19T15:23:22;9.90;99.90
5675;DHT22;2860;54.284;10.158;2023-11-19T15:25:47;9.80;99.90
5675;DHT22;2860;54.284;10.158;2023-11-19T15:28:14;9.80;99.90
5675;DHT22;2860;54.284;10.158;2023-11-19T15:30:40;9.80;99.90
5675;DHT22;2860;54.284;10.158;2023-11-19T15:33:05;9.80;99.90
5675;DHT22;2860;54.284;10.158;2023-11-19T15:35:31;9.80;99.90
5675;DHT22;2860;54.284;10.158;2023-11-19T15:37:56;9.70;99.90
5675;DHT22;2860;54.284;10.158;2023-11-19T15:40:22;9.70;99.90
5675;DHT22;2860;54.284;10.158;2023-11-19T15:42:47;9.70;99.90
5675;DHT22;2860;54.284;10.158;2023-11-19T15:45:13;9.70;99.90
5675;DHT22;2860;54.284;10.158;2023-11-19T15:47:39;9.70;99.90
5675;DHT22;2860;54.284;10.158;2023-11-19T15:50:05;9.70;99.90
5675;DHT22;2860;54.284;10.158;2023-11-19T15:52:32;9.70;99.90
5675;DHT22;2860;54.284;10.158;2023-11-19T15:54:58;9.60;99.90
5675;DHT22;2860;54.284;10.158;2023-11-19T15:57:23;9.50;99.90
5675;DHT22;2860;54.284;10.158;2023-11-19T15:59:49;9.50;99.90
5675;DHT22;2860;54.284;10.158;2023-11-19T16:02:16;9.50;99.90
5675;DHT22;2860;54.284;10.158;2023-11-19T16:04:44;9.50;99.90
5675;DHT22;2860;54.284;10.158;2023-11-19T16:07:13;9.50;99.90
5675;DHT22;2860;54.284;10.158;2023-11-19T16:09:39;9.40;99.90
5675;DHT22;2860;54.284;10.158;2023-11-19T16:12:05;9.40;99.90